AirNav   Pilot Hours Calculator
 
 1654 users online  

3AL6 Town & Country Airpark
Odenville, Alabama, USA

GOING TO ODENVILLE?


FAA INFORMATION EFFECTIVE 09 SEPTEMBER 2021

Location

FAA Identifier: 3AL6
Lat/Long: 33-39-24.4000N 086-24-44.9000W
33-39.406667N 086-24.748333W
33.6567778,-86.4124722
(estimated)
Elevation: 730 ft. / 223 m (estimated)
Variation: 01W (1995)
From city: 1 mile E of ODENVILLE, AL
Time zone: UTC -5 (UTC -6 during Standard Time)
Zip code: 35178

Airport Operations

Airport use: Private use. Permission required prior to landing
Activation date: 02/1999
Control tower: no
ARTCC: ATLANTA CENTER
FSS: ANNISTON FLIGHT SERVICE STATION
Attendance: UNATNDD
Wind indicator: yes
Segmented circle: no

Airport Communications

WX AWOS-3P at PLR (10 nm SE): 119.625 ((205) 884-4359)
WX ASOS at BHM (18 nm W): PHONE 205-591-6172
WX AWOS-3PT at ASN (19 nm E): 118.425 (256-362-5847)

Nearby radio navigation aids

VOR radial/distance  VOR name  Freq  Var
VUZr090/24.4VULCAN VORTAC114.4002E
GADr219/25.2GADSDEN VOR/DME112.3002E

Airport Services

Runway Information

Runway 16/34

Dimensions: 1000 x 50 ft. / 305 x 15 m
Surface: turf, in good condition
RUNWAY 16  RUNWAY 34
Traffic pattern: leftleft
Obstructions: 65 ft. trees, 100 ft. from runway65 ft. trees, 500 ft. from runway

Airport Ownership and Management from official FAA records

Ownership: Privately-owned
Owner: LEWIS R. HOOD
30 AERO DRIVE
ODENVILLE, AL 35120
Phone 205-914-1564
Manager: LEWIS R. HOOD
30 AERO DRIVE
ODENVILLE, AL 35120
Phone 205-914-1564

Airport Operational Statistics

Aircraft based on the field: 2
Single engine airplanes: 2
    

Additional Remarks

FOR CD CTC ATLANTA ARTCC AT 770-210-7692.

Instrument Procedures

There are no published instrument procedures at 3AL6.

Some nearby airports with instrument procedures:

KPLR - St Clair County Airport (10 nm SE)
KBHM - Birmingham-Shuttlesworth International Airport (18 nm W)
KASN - Talladega Municipal Airport (19 nm E)
20A - Robbins Field Airport (19 nm N)
KGAD - Northeast Alabama Regional Airport (25 nm NE)
 
Loc | Ops | Rwys | IFR | FBO | Links
Com | Nav | Svcs | Stats | Notes
Area around 3AL6 (Town & Country Airpark)
 
Road maps at: MapQuest Bing Google
 
Aerial photo
No photo
 
Sectional chart

 
Airport distance calculator
Flying to Town & Country Airpark? Find the distance to fly.

From to 3AL6

Sunrise and sunset
Times for 21-Sep-2021
 Local
(UTC-5)
 Zulu
(UTC)
Morning civil twilight06:0911:09
Sunrise06:3411:34
Sunset18:4323:43
Evening civil twilight19:0800:08

Current date and time
Zulu (UTC)  21-Sep-2021 18:33:50
Local (UTC-5)  21-Sep-2021 13:33:50
 
METAR
KPLR 
10nm SE 
211635Z AUTO 00000KT 10SM BKN027 BKN055 29/23 A3008 RMK A01
KBHM 
18nm W 
211553Z 21005KT 10SM FEW030 SCT150 BKN250 28/22 A3011 RMK AO2 SLP186 T02780222 $
KASN 
19nm E 
211635Z AUTO 00000KT 10SM SCT045 BKN050 BKN060 28/22 A3009 RMK AO2 LTG DSNT W T02830219
TAF
KBHM 
18nm W 
211616Z 2116/2212 22005KT 6SM SHRA VCTS SCT015 BKN040CB TEMPO 2118/2122 4SM SHRA BKN040 FM220000 VRB03KT 6SM SHRA BKN060 FM220600 VRB03KT 6SM SHRA BKN008
KASN 
19nm E 
211618Z 2116/2212 12004KT 6SM SHRA VCTS SCT015 BKN040CB TEMPO 2118/2122 4SM SHRA BKN040 FM220000 VRB03KT P6SM VCSH BKN060 FM220600 VRB03KT P6SM BKN008
NOTAMs
Click for the latest NOTAMs
NOTAMs are issued by the DoD/FAA and will open in a separate window not controlled by AirNav.

 

 
 

Would you like to see your business listed on this page?

 If your business provides an interesting product or service to pilots, flight crews, aircraft, or users of the Town & Country Airpark, you should consider listing it here.  To start the listing process, click on the button below
 
Add a business
 

Other Pages about Town & Country Airpark

Update a link
 
Copyright © AirNav, LLC. All rights reserved. Privacy Policy  Contact